Terminal Aerodrome Forecast
Issued by NWS Northern Indiana

Home | Current Version | Previous Version | Graphics & Text | Print | Product List | Glossary On
Versions: 1 2 3 4 5 6 7 8 9 10 11 12 13 14 15
000
FTUS43 KIWX 300800 AAA
TAFFWA
TAF AMD
KFWA 300815Z 3008/0106 33010KT P6SM BKN008 OVC060
      TEMPO 3008/3012 3SM SHRA BR
     FM301600 35010KT P6SM OVC010
     FM301900 36008KT P6SM BKN020
     FM010000 04003KT P6SM SCT020=

USA.gov is the U.S. government's official web portal to all federal, state and local government web resources and services.